createdAt,value
2019-05-10T00:02:26.306Z,62.54
2019-05-10T00:04:55.007Z,62.87
2019-05-10T00:07:23.632Z,64.16
2019-05-10T00:09:50.419Z,64.62
2019-05-10T00:12:18.944Z,66.07
2019-05-10T00:14:47.673Z,66.52
2019-05-10T00:18:10.922Z,67.42
2019-05-10T00:20:37.487Z,67.57
2019-05-10T00:23:04.257Z,67.37
2019-05-10T00:25:30.832Z,68.20
2019-05-10T00:27:57.527Z,68.56
2019-05-10T00:30:24.229Z,68.77
2019-05-10T00:32:50.867Z,69.30
2019-05-10T00:35:17.641Z,69.71
2019-05-10T00:37:44.184Z,70.46
2019-05-10T00:40:11.218Z,70.14
2019-05-10T00:42:37.874Z,70.45
2019-05-10T00:45:06.231Z,71.23
2019-05-10T00:47:32.902Z,71.63
2019-05-10T00:49:59.470Z,71.24
2019-05-10T00:52:26.027Z,70.99
2019-05-10T00:54:52.644Z,70.48
2019-05-10T00:57:19.237Z,71.31
2019-05-10T00:59:45.858Z,71.68
2019-05-10T01:02:12.458Z,72.08
2019-05-10T01:04:39.034Z,72.74
2019-05-10T01:07:05.880Z,72.74
2019-05-10T01:09:32.464Z,72.35
2019-05-10T01:11:59.052Z,72.21
2019-05-10T01:14:26.928Z,72.55
2019-05-10T01:16:54.322Z,73.69
2019-05-10T01:19:20.991Z,73.67
2019-05-10T01:21:47.622Z,72.87
2019-05-10T01:24:14.342Z,73.29
2019-05-10T01:26:41.199Z,73.46
2019-05-10T01:29:08.070Z,73.63
2019-05-10T01:31:34.692Z,73.42
2019-05-10T01:34:01.282Z,73.04
2019-05-10T01:36:28.016Z,72.54
2019-05-10T01:38:54.766Z,72.70
2019-05-10T01:41:21.385Z,72.46
2019-05-10T01:43:47.970Z,72.89
2019-05-10T01:46:14.719Z,72.12
2019-05-10T01:48:41.317Z,73.09
2019-05-10T01:51:08.268Z,72.82
2019-05-10T01:53:35.007Z,72.60
2019-05-10T01:56:01.589Z,73.83
2019-05-10T01:58:28.235Z,72.42
2019-05-10T02:00:54.874Z,72.14
2019-05-10T02:03:21.501Z,72.72
2019-05-10T02:05:49.247Z,71.46
2019-05-10T02:08:15.985Z,71.91
2019-05-10T02:10:42.526Z,71.53
2019-05-10T02:13:09.415Z,71.05
2019-05-10T02:15:36.191Z,71.05
2019-05-10T02:18:03.774Z,71.63
2019-05-10T02:20:30.326Z,73.12
2019-05-10T02:22:57.041Z,72.92
2019-05-10T02:25:23.619Z,73.32
2019-05-10T02:27:50.327Z,73.54
2019-05-10T02:30:20.976Z,72.98
2019-05-10T02:32:47.520Z,72.67
2019-05-10T02:35:15.997Z,72.90
2019-05-10T02:37:42.814Z,73.04
2019-05-10T02:40:11.191Z,73.51
2019-05-10T02:42:37.967Z,73.02
2019-05-10T02:45:06.934Z,72.10
2019-05-10T02:47:33.599Z,72.23
2019-05-10T02:50:00.179Z,72.50
2019-05-10T02:52:26.932Z,72.80
2019-05-10T02:54:54.032Z,72.54
2019-05-10T02:57:21.632Z,73.01
2019-05-10T02:59:49.606Z,73.00
2019-05-10T03:02:20.301Z,72.66
2019-05-10T03:04:48.635Z,72.10
2019-05-10T03:07:16.785Z,72.16
2019-05-10T03:09:47.361Z,71.44
2019-05-10T03:12:19.759Z,72.21
2019-05-10T03:14:51.933Z,72.64
2019-05-10T03:17:18.893Z,72.20
2019-05-10T03:19:49.742Z,71.87
2019-05-10T03:22:17.134Z,72.27
2019-05-10T03:24:43.828Z,71.13
2019-05-10T03:27:10.591Z,72.44
2019-05-10T03:29:38.574Z,72.05
2019-05-10T03:32:05.436Z,71.98
2019-05-10T03:34:32.519Z,70.68
2019-05-10T03:36:59.272Z,70.60
2019-05-10T03:39:26.007Z,72.58
2019-05-10T03:41:52.684Z,71.65
2019-05-10T03:44:19.534Z,72.27
2019-05-10T03:46:46.141Z,71.98
2019-05-10T03:49:12.681Z,71.42
2019-05-10T03:51:39.369Z,71.89
2019-05-10T03:54:06.231Z,72.32
2019-05-10T03:56:32.881Z,72.37
2019-05-10T03:58:59.472Z,72.05
2019-05-10T04:01:26.278Z,71.07
2019-05-10T04:03:52.951Z,70.82
2019-05-10T04:06:19.942Z,71.53
2019-05-10T04:08:47.752Z,70.67
2019-05-10T04:11:14.464Z,70.19
2019-05-10T04:13:41.230Z,69.37
2019-05-10T04:16:07.922Z,71.04
2019-05-10T04:18:34.585Z,70.78
2019-05-10T04:21:01.433Z,71.19
2019-05-10T04:23:28.009Z,71.40
2019-05-10T04:25:54.593Z,70.28
2019-05-10T04:28:21.118Z,69.69
2019-05-10T04:30:47.683Z,69.84
2019-05-10T04:33:14.386Z,69.12
2019-05-10T04:35:41.251Z,69.10
2019-05-10T04:38:08.046Z,69.34
2019-05-10T04:40:34.675Z,70.00
2019-05-10T04:43:01.238Z,70.07
2019-05-10T04:45:27.797Z,69.55
2019-05-10T04:47:54.555Z,69.09
2019-05-10T04:50:21.146Z,68.53
2019-05-10T04:52:47.682Z,68.76
2019-05-10T04:55:14.283Z,68.95
2019-05-10T04:57:49.891Z,68.92
2019-05-10T05:00:10.181Z,68.36
2019-05-10T05:02:37.086Z,68.83
2019-05-10T05:05:05.285Z,68.42
2019-05-10T05:07:31.947Z,69.09
2019-05-10T05:09:58.533Z,68.77
2019-05-10T05:12:25.113Z,68.16
2019-05-10T05:14:51.835Z,68.60
2019-05-10T05:17:18.659Z,67.86
2019-05-10T05:19:45.428Z,68.32
2019-05-10T05:22:12.128Z,68.18
2019-05-10T05:24:38.669Z,68.22
2019-05-10T05:27:05.354Z,68.37
2019-05-10T05:29:32.013Z,68.87
2019-05-10T05:32:01.149Z,69.60
2019-05-10T05:34:27.185Z,70.57
2019-05-10T05:36:53.943Z,68.99
2019-05-10T05:39:20.607Z,68.22
2019-05-10T05:41:49.696Z,67.53
2019-05-10T05:44:20.227Z,68.91
2019-05-10T05:46:44.594Z,68.49
2019-05-10T05:49:11.240Z,68.29
2019-05-10T05:51:37.844Z,68.76
2019-05-10T05:54:04.761Z,68.14
2019-05-10T05:56:31.598Z,67.76
2019-05-10T05:58:58.252Z,67.94
2019-05-10T06:01:28.891Z,67.56
2019-05-10T06:03:53.506Z,68.19
2019-05-10T06:06:23.173Z,68.42
2019-05-10T06:08:48.863Z,67.24
2019-05-10T06:11:15.446Z,66.53
2019-05-10T06:13:42.082Z,67.42
2019-05-10T06:16:12.958Z,67.00
2019-05-10T06:18:41.752Z,66.79
2019-05-10T06:21:06.040Z,67.59
2019-05-10T06:23:35.227Z,67.60
2019-05-10T06:26:01.552Z,67.42
2019-05-10T06:28:56.299Z,67.61
2019-05-10T06:30:57.464Z,67.81
2019-05-10T06:33:24.074Z,67.11
2019-05-10T06:35:50.808Z,66.61
2019-05-10T06:38:17.372Z,66.56
2019-05-10T06:40:47.326Z,66.22
2019-05-10T06:43:13.271Z,67.58
2019-05-10T06:45:41.343Z,66.21
2019-05-10T06:48:07.982Z,66.23
2019-05-10T06:50:34.587Z,65.99
2019-05-10T06:53:08.000Z,65.72
2019-05-10T06:55:29.872Z,65.77
2019-05-10T06:58:00.526Z,65.83
2019-05-10T07:00:25.095Z,64.75
2019-05-10T07:02:51.668Z,65.00
2019-05-10T07:05:18.369Z,64.56
2019-05-10T07:07:45.659Z,64.31
2019-05-10T07:10:19.050Z,64.08
2019-05-10T07:12:41.591Z,64.18
2019-05-10T07:15:09.694Z,64.36
2019-05-10T07:17:41.320Z,64.33
2019-05-10T07:20:07.281Z,64.57
2019-05-10T07:22:34.252Z,63.89
2019-05-10T07:25:07.507Z,64.32
2019-05-10T07:27:38.203Z,64.45
2019-05-10T07:30:06.201Z,63.97
2019-05-10T07:32:32.989Z,63.69
2019-05-10T07:35:01.024Z,64.23
2019-05-10T07:37:29.105Z,63.53
2019-05-10T07:39:55.782Z,63.81
2019-05-10T07:42:22.394Z,63.29
2019-05-10T07:44:49.118Z,62.77
2019-05-10T07:47:15.688Z,62.55
2019-05-10T07:49:42.264Z,61.37
2019-05-10T07:52:09.047Z,61.24
2019-05-10T07:54:37.539Z,62.44
2019-05-10T07:57:04.261Z,62.03
2019-05-10T07:59:49.553Z,61.25
2019-05-10T08:02:05.760Z,62.04
2019-05-10T08:04:33.568Z,61.47
2019-05-10T08:06:59.683Z,62.56
2019-05-10T08:09:26.580Z,61.84
2019-05-10T08:11:53.882Z,60.14
2019-05-10T08:14:25.095Z,60.56
2019-05-10T08:16:58.383Z,59.63
2019-05-10T08:19:19.300Z,59.90
2019-05-10T08:21:48.805Z,59.10
2019-05-10T08:24:16.664Z,58.35
2019-05-10T08:26:43.238Z,58.32
2019-05-10T08:29:15.154Z,58.39
2019-05-10T08:31:40.794Z,57.32
2019-05-10T08:34:08.259Z,57.56
2019-05-10T08:36:37.290Z,58.22
2019-05-10T08:39:10.601Z,57.53
2019-05-10T08:41:37.257Z,57.99
2019-05-10T08:44:04.890Z,58.10
2019-05-10T08:46:40.150Z,58.60
2019-05-10T08:49:02.112Z,58.55
2019-05-10T08:51:32.268Z,58.92
2019-05-10T08:53:59.197Z,58.75
2019-05-10T08:56:27.024Z,60.24
2019-05-10T08:58:53.945Z,59.92
2019-05-10T09:01:29.696Z,60.37
2019-05-10T09:03:55.070Z,61.68
2019-05-10T09:06:18.069Z,62.96
2019-05-10T09:08:44.708Z,61.94
2019-05-10T09:11:11.265Z,62.66
2019-05-10T09:13:41.565Z,63.60
2019-05-10T09:16:06.575Z,63.47
2019-05-10T09:18:38.093Z,64.87
2019-05-10T09:21:08.532Z,65.19
2019-05-10T09:23:32.677Z,66.92
2019-05-10T09:26:03.592Z,66.79
2019-05-10T09:28:29.080Z,67.82
2019-05-10T09:31:00.642Z,67.82
2019-05-10T09:33:24.104Z,67.29
2019-05-10T09:35:54.701Z,67.72
2019-05-10T09:38:19.324Z,67.31
2019-05-10T09:40:51.148Z,66.79
2019-05-10T09:43:15.032Z,68.37
2019-05-10T09:45:42.465Z,67.98
2019-05-10T09:48:11.877Z,68.04
2019-05-10T09:50:44.338Z,67.53
2019-05-10T09:53:09.090Z,67.76
2019-05-10T09:55:36.937Z,67.81
2019-05-10T09:58:03.817Z,67.14
2019-05-10T10:00:33.953Z,68.46
2019-05-10T10:03:01.923Z,68.96
2019-05-10T10:05:29.345Z,67.75
2019-05-10T10:07:57.836Z,67.69
2019-05-10T10:13:13.584Z,67.31
2019-05-10T10:15:37.236Z,67.47
2019-05-10T10:18:04.409Z,67.29
2019-05-10T10:20:35.960Z,67.83
2019-05-10T10:23:01.815Z,67.19
2019-05-10T10:25:30.000Z,66.37
2019-05-10T10:27:57.808Z,67.14
2019-05-10T10:30:27.113Z,66.50
2019-05-10T10:32:53.584Z,66.18
2019-05-10T10:35:26.494Z,64.50
2019-05-10T10:37:49.074Z,65.62
2019-05-10T10:40:18.348Z,65.25
2019-05-10T10:42:47.291Z,64.83
2019-05-10T10:45:13.987Z,64.23
2019-05-10T10:47:40.866Z,64.43
2019-05-10T10:50:13.164Z,64.53
2019-05-10T10:52:37.742Z,63.46
2019-05-10T10:55:11.275Z,62.85
2019-05-10T10:57:37.402Z,62.72
2019-05-10T11:00:08.474Z,62.05
2019-05-10T11:02:35.107Z,62.37
2019-05-10T11:05:04.780Z,61.52
2019-05-10T11:07:33.796Z,62.65
2019-05-10T11:10:08.049Z,62.37
2019-05-10T11:12:30.657Z,62.78
2019-05-10T11:14:57.242Z,63.51
2019-05-10T11:17:23.815Z,62.76
2019-05-10T11:19:50.396Z,63.53
2019-05-10T11:22:18.238Z,62.29
2019-05-10T11:24:44.835Z,63.26
2019-05-10T11:27:15.842Z,63.97
2019-05-10T11:29:41.856Z,63.42
2019-05-10T11:32:15.885Z,63.89
2019-05-10T11:34:38.803Z,63.17
2019-05-10T11:37:05.885Z,63.92
2019-05-10T11:39:40.749Z,64.02
2019-05-10T11:42:06.968Z,63.29
2019-05-10T11:44:31.649Z,61.75
2019-05-10T11:46:58.508Z,60.97
2019-05-10T11:49:25.143Z,60.96
2019-05-10T11:51:55.011Z,60.13
2019-05-10T11:54:21.546Z,60.36
2019-05-10T11:56:48.270Z,61.20
2019-05-10T11:59:16.510Z,60.47
2019-05-10T12:01:43.392Z,60.68
2019-05-10T12:04:23.879Z,59.30
2019-05-10T12:06:41.356Z,59.56
2019-05-10T12:09:12.319Z,59.38
2019-05-10T12:11:43.071Z,59.22
2019-05-10T12:14:05.883Z,59.91
2019-05-10T12:16:33.524Z,60.88
2019-05-10T12:19:06.523Z,60.52
2019-05-10T12:21:32.238Z,60.24
2019-05-10T12:24:10.334Z,60.59
2019-05-10T12:28:54.809Z,61.01
2019-05-10T12:31:23.550Z,60.58
2019-05-10T12:33:50.725Z,61.60
2019-05-10T12:36:23.535Z,61.77
2019-05-10T12:38:46.066Z,61.46
2019-05-10T12:41:12.817Z,61.09
2019-05-10T12:43:43.245Z,61.50
2019-05-10T12:46:10.341Z,61.78
2019-05-10T12:48:37.883Z,61.67
2019-05-10T12:51:11.240Z,61.90
2019-05-10T12:53:36.631Z,61.37
2019-05-10T12:56:01.643Z,61.11
2019-05-10T12:58:28.204Z,61.47
2019-05-10T13:00:54.878Z,60.75
2019-05-10T13:03:25.163Z,61.37
2019-05-10T13:05:52.830Z,61.35
2019-05-10T13:08:18.791Z,59.56
2019-05-10T13:10:49.437Z,60.75
2019-05-10T13:13:17.484Z,59.71
2019-05-10T13:15:43.163Z,59.49
2019-05-10T13:18:09.845Z,59.41
2019-05-10T13:20:38.685Z,58.97
2019-05-10T13:23:10.126Z,59.96
2019-05-10T13:25:33.982Z,58.93
2019-05-10T13:28:00.625Z,58.97
2019-05-10T13:30:28.530Z,58.61
2019-05-10T13:32:58.578Z,57.40
2019-05-10T13:35:24.646Z,56.02
2019-05-10T13:37:51.320Z,57.62
2019-05-10T13:40:18.134Z,57.86
2019-05-10T13:42:46.002Z,57.13
2019-05-10T13:45:13.263Z,57.26
2019-05-10T13:47:39.857Z,57.18
2019-05-10T13:50:09.023Z,57.21
2019-05-10T13:52:38.892Z,56.53
2019-05-10T13:55:05.456Z,55.70
2019-05-10T13:57:32.140Z,56.09
2019-05-10T14:00:02.027Z,55.90
2019-05-10T14:02:32.493Z,55.81
2019-05-10T14:04:55.796Z,55.90
2019-05-10T14:07:22.463Z,55.31
2019-05-10T14:09:52.106Z,54.77
2019-05-10T14:12:23.225Z,54.57
2019-05-10T14:14:47.275Z,54.53
2019-05-10T14:17:14.508Z,55.40
2019-05-10T14:19:41.419Z,55.24
2019-05-10T14:22:08.176Z,54.65
2019-05-10T14:24:35.095Z,53.99
2019-05-10T14:27:01.665Z,54.17
2019-05-10T14:29:34.801Z,53.46
2019-05-10T14:31:58.219Z,53.61
2019-05-10T14:34:24.826Z,52.97
2019-05-10T14:36:51.409Z,53.65
2019-05-10T14:39:18.062Z,53.66
2019-05-10T14:41:45.171Z,53.49
2019-05-10T14:44:13.217Z,53.04
2019-05-10T14:46:40.003Z,52.97
2019-05-10T14:49:09.888Z,53.45
2019-05-10T14:51:49.416Z,53.44
2019-05-10T14:54:06.647Z,52.50
2019-05-10T14:56:33.662Z,52.70
2019-05-10T14:59:00.238Z,53.63
2019-05-10T15:01:26.816Z,52.82
2019-05-10T15:03:53.477Z,51.73
2019-05-10T15:06:21.283Z,50.69
2019-05-10T15:08:47.814Z,51.16
2019-05-10T15:11:14.395Z,51.74
2019-05-10T15:13:40.988Z,51.54
2019-05-10T15:16:12.630Z,52.00
2019-05-10T15:18:36.328Z,51.39
2019-05-10T15:21:03.278Z,51.24
2019-05-10T15:23:29.883Z,51.99
2019-05-10T15:26:03.607Z,53.25
2019-05-10T15:28:25.123Z,52.65
2019-05-10T15:30:52.633Z,52.72
2019-05-10T15:33:20.050Z,53.75
2019-05-10T15:35:51.927Z,53.21
2019-05-10T15:38:16.977Z,51.53
2019-05-10T15:40:44.672Z,52.79
2019-05-10T15:43:16.849Z,52.74
2019-05-10T15:45:46.115Z,54.37
2019-05-10T15:48:09.758Z,52.38
2019-05-10T15:50:38.474Z,52.76
2019-05-10T15:53:04.863Z,52.95
2019-05-10T15:55:31.486Z,51.93
2019-05-10T15:58:00.080Z,52.60
2019-05-10T16:00:37.415Z,53.36
2019-05-10T16:02:57.521Z,53.72
2019-05-10T16:05:41.326Z,53.29
2019-05-10T16:07:53.196Z,53.84
2019-05-10T16:10:20.008Z,53.79
2019-05-10T16:12:46.611Z,53.44
2019-05-10T16:15:20.095Z,53.30
2019-05-10T16:17:42.582Z,52.51
2019-05-10T16:20:09.739Z,52.14
2019-05-10T16:22:36.570Z,52.35
2019-05-10T16:25:05.642Z,53.02
2019-05-10T16:27:34.088Z,54.82
2019-05-10T16:30:01.002Z,55.08
2019-05-10T16:32:34.753Z,55.54
2019-05-10T16:35:05.985Z,55.28
2019-05-10T16:37:29.802Z,56.07
2019-05-10T16:39:56.734Z,55.38
2019-05-10T16:42:27.670Z,56.50
2019-05-10T16:44:52.154Z,57.26
2019-05-10T16:47:18.758Z,56.56
2019-05-10T16:49:47.771Z,57.40
2019-05-10T16:52:14.161Z,57.12
2019-05-10T16:54:40.859Z,57.52
2019-05-10T16:57:07.800Z,58.91
2019-05-10T16:59:35.337Z,59.26
2019-05-10T17:02:06.131Z,58.80
2019-05-10T17:04:36.979Z,58.88
2019-05-10T17:06:59.770Z,59.31
2019-05-10T17:09:27.406Z,58.81
2019-05-10T17:11:54.334Z,59.98
2019-05-10T17:14:20.936Z,60.50
2019-05-10T17:16:49.553Z,60.53
2019-05-10T17:19:16.355Z,60.73
2019-05-10T17:21:42.957Z,61.33
2019-05-10T17:24:09.636Z,61.44
2019-05-10T17:26:36.244Z,61.50
2019-05-10T17:29:07.260Z,62.36
2019-05-10T17:31:31.411Z,63.01
2019-05-10T17:33:57.991Z,63.18
2019-05-10T17:36:24.805Z,63.64
2019-05-10T17:38:53.495Z,63.58
2019-05-10T17:41:25.020Z,63.21
2019-05-10T17:43:48.628Z,63.62
2019-05-10T17:46:18.744Z,63.57
2019-05-10T17:48:47.486Z,63.59
2019-05-10T17:51:12.684Z,64.93
2019-05-10T17:53:39.237Z,65.08
2019-05-10T17:56:05.869Z,65.12
2019-05-10T17:58:33.923Z,65.53
2019-05-10T18:01:01.227Z,65.15
2019-05-10T18:03:27.818Z,65.54
2019-05-10T18:05:54.724Z,67.02
2019-05-10T18:08:21.398Z,67.07
2019-05-10T18:10:47.955Z,67.38
2019-05-10T18:13:14.636Z,67.71
2019-05-10T18:15:41.341Z,67.02
2019-05-10T18:18:08.106Z,66.80
2019-05-10T18:20:41.806Z,68.74
2019-05-10T18:23:04.417Z,68.26
2019-05-10T18:25:31.293Z,68.33
2019-05-10T18:27:57.901Z,68.88
2019-05-10T18:30:24.499Z,68.00
2019-05-10T18:32:51.219Z,69.40
2019-05-10T18:35:17.997Z,69.01
2019-05-10T18:37:45.650Z,68.60
2019-05-10T18:40:15.428Z,69.72
2019-05-10T18:42:42.015Z,69.94
2019-05-10T18:45:11.235Z,68.11
2019-05-10T18:47:37.931Z,68.37
2019-05-10T18:50:05.891Z,68.23
2019-05-10T18:52:39.127Z,68.65
2019-05-10T18:55:07.656Z,70.58
2019-05-10T18:57:34.417Z,71.06
2019-05-10T19:00:01.324Z,71.58
2019-05-10T19:02:29.291Z,72.16
2019-05-10T19:04:56.202Z,71.60
2019-05-10T19:07:23.412Z,71.43
2019-05-10T19:09:50.099Z,72.28
2019-05-10T19:12:18.868Z,72.23
2019-05-10T19:14:45.240Z,72.30
2019-05-10T19:17:11.969Z,72.17
2019-05-10T19:19:42.178Z,71.41
2019-05-10T19:22:09.301Z,72.47
2019-05-10T19:24:38.477Z,71.97
2019-05-10T19:27:07.209Z,71.16
2019-05-10T19:29:38.758Z,71.67
2019-05-10T19:32:02.453Z,71.81
2019-05-10T19:34:29.215Z,72.57
2019-05-10T19:36:55.904Z,72.62
2019-05-10T19:39:23.004Z,72.62
2019-05-10T19:41:49.925Z,71.59
2019-05-10T19:44:16.635Z,70.29
2019-05-10T19:46:43.609Z,70.11
2019-05-10T19:49:22.731Z,70.44
2019-05-10T19:51:52.079Z,72.62
2019-05-10T19:54:21.078Z,72.28
2019-05-10T19:56:47.738Z,72.77
2019-05-10T19:59:14.492Z,72.41
2019-05-10T20:01:44.946Z,71.84
2019-05-10T20:04:10.638Z,71.90
2019-05-10T20:06:37.344Z,72.28
2019-05-10T20:09:06.427Z,72.07
2019-05-10T20:11:33.558Z,72.63
2019-05-10T20:14:00.234Z,72.52
2019-05-10T20:16:27.036Z,70.86
2019-05-10T20:18:54.571Z,72.10
2019-05-10T20:21:22.587Z,73.36
2019-05-10T20:23:49.239Z,73.47
2019-05-10T20:26:16.379Z,73.33
2019-05-10T20:28:43.109Z,72.38
2019-05-10T20:31:10.792Z,71.51
2019-05-10T20:33:37.519Z,71.16
2019-05-10T20:36:04.650Z,71.33
2019-05-10T20:38:31.619Z,72.95
2019-05-10T20:40:58.243Z,73.03
2019-05-10T20:43:25.248Z,72.62
2019-05-10T20:45:51.924Z,72.94
2019-05-10T20:48:18.564Z,73.30
2019-05-10T20:50:45.577Z,72.94
2019-05-10T20:53:12.170Z,72.67
2019-05-10T20:55:38.784Z,72.00
2019-05-10T20:58:05.721Z,73.13
2019-05-10T21:00:32.881Z,73.47
2019-05-10T21:02:59.459Z,74.07
2019-05-10T21:05:26.068Z,74.50
2019-05-10T21:07:54.111Z,73.96
2019-05-10T21:10:20.888Z,73.47
2019-05-10T21:12:47.780Z,73.72
2019-05-10T21:15:14.606Z,73.82
2019-05-10T21:17:41.341Z,73.86
2019-05-10T21:20:09.463Z,72.61
2019-05-10T21:22:36.231Z,73.48
2019-05-10T21:25:05.955Z,72.67
2019-05-10T21:27:33.399Z,73.24
2019-05-10T21:30:00.216Z,72.93
2019-05-10T21:32:27.140Z,74.40
2019-05-10T21:34:53.812Z,73.80
2019-05-10T21:37:20.885Z,72.53
2019-05-10T21:39:47.642Z,73.00
2019-05-10T21:42:14.533Z,73.21
2019-05-10T21:44:42.284Z,73.36
2019-05-10T21:47:09.099Z,72.77
2019-05-10T21:49:35.907Z,73.04
2019-05-10T21:52:02.598Z,72.30
2019-05-10T21:54:29.395Z,71.35
2019-05-10T21:56:56.152Z,72.34
2019-05-10T21:59:22.747Z,72.59
2019-05-10T22:01:51.495Z,71.49
2019-05-10T22:04:18.231Z,71.43
2019-05-10T22:06:44.931Z,72.24
2019-05-10T22:09:11.556Z,71.51
2019-05-10T22:11:38.371Z,71.95
2019-05-10T22:14:05.299Z,71.97
2019-05-10T22:16:31.896Z,73.03
2019-05-10T22:19:00.371Z,71.59
2019-05-10T22:21:27.278Z,72.14
2019-05-10T22:23:53.830Z,71.52
2019-05-10T22:26:20.423Z,71.34
2019-05-10T22:28:47.045Z,71.75
2019-05-10T22:31:13.615Z,73.62
2019-05-10T22:33:40.156Z,72.69
2019-05-10T22:36:06.789Z,73.50
2019-05-10T22:38:33.400Z,73.34
2019-05-10T22:41:00.018Z,73.11
2019-05-10T22:43:26.734Z,73.50
2019-05-10T22:45:53.383Z,72.97
2019-05-10T22:48:19.928Z,72.68
2019-05-10T22:50:46.563Z,73.50
2019-05-10T22:53:13.286Z,74.29
2019-05-10T22:55:39.952Z,74.12
2019-05-10T22:58:06.680Z,73.03
2019-05-10T23:00:33.696Z,73.90
2019-05-10T23:03:00.346Z,73.57
2019-05-10T23:05:27.242Z,72.16
2019-05-10T23:07:53.926Z,72.27
2019-05-10T23:10:20.513Z,72.33
2019-05-10T23:12:47.078Z,72.72
2019-05-10T23:15:14.366Z,73.07
2019-05-10T23:17:41.083Z,72.49
2019-05-10T23:20:07.935Z,72.73
2019-05-10T23:22:37.711Z,72.21
2019-05-10T23:25:05.893Z,72.99
2019-05-10T23:27:32.732Z,72.93
2019-05-10T23:29:59.435Z,73.43
2019-05-10T23:32:25.991Z,73.21
2019-05-10T23:34:54.505Z,72.60
2019-05-10T23:37:21.108Z,72.22
2019-05-10T23:39:47.949Z,71.90
2019-05-10T23:42:14.711Z,72.32
2019-05-10T23:44:41.347Z,71.97
2019-05-10T23:47:10.106Z,70.90
2019-05-10T23:49:36.738Z,72.53
2019-05-10T23:52:03.817Z,72.65
2019-05-10T23:54:30.888Z,71.80
2019-05-10T23:56:57.533Z,71.38
2019-05-10T23:59:24.095Z,72.56
